createdAt,value
2022-12-12T00:02:34.136Z,97653.69
2022-12-12T00:05:56.094Z,97652.78
2022-12-12T00:09:17.909Z,97655.84
2022-12-12T00:12:40.258Z,97658.13
2022-12-12T00:16:03.714Z,97659.78
2022-12-12T00:19:25.959Z,97662.75
2022-12-12T00:22:47.821Z,97662.81
2022-12-12T00:26:21.933Z,97654.09
2022-12-12T00:29:43.860Z,97650.22
2022-12-12T00:33:05.829Z,97647.22
2022-12-12T00:36:31.137Z,97660.22
2022-12-12T00:39:53.349Z,97652.66
2022-12-12T00:43:15.774Z,97661.34
2022-12-12T00:46:37.737Z,97643.09
2022-12-12T00:49:59.877Z,97655.56
2022-12-12T00:53:23.469Z,97652.28
2022-12-12T00:56:45.424Z,97656.16
2022-12-12T01:00:13.813Z,97653.81
2022-12-12T01:03:38.775Z,97660.16
2022-12-12T01:07:01.193Z,97665.16
2022-12-12T01:10:23.171Z,97663.09
2022-12-12T01:13:47.906Z,97668.13
2022-12-12T01:17:09.688Z,97670.09
2022-12-12T01:20:31.730Z,97672.91
2022-12-12T01:23:53.689Z,97671.88
2022-12-12T01:27:15.508Z,97677.53
2022-12-12T01:30:37.503Z,97687.03
2022-12-12T01:33:59.305Z,97690.88
2022-12-12T01:37:21.134Z,97680.94
2022-12-12T01:40:42.965Z,97690.25
2022-12-12T01:44:46.395Z,97687.88
2022-12-12T01:48:08.271Z,97687.94
2022-12-12T01:51:31.016Z,97685.41
2022-12-12T01:54:59.641Z,97691.72
2022-12-12T01:58:21.692Z,97702.25
2022-12-12T02:01:44.911Z,97696.91
2022-12-12T02:05:33.427Z,97705.03
2022-12-12T02:09:01.313Z,97707.00
2022-12-12T02:12:23.107Z,97707.94
2022-12-12T02:16:11.332Z,97704.38
2022-12-12T02:20:26.841Z,97711.56
2022-12-12T02:23:57.802Z,97714.19
2022-12-12T02:27:44.756Z,97721.22
2022-12-12T02:31:43.722Z,97717.44
2022-12-12T02:35:41.241Z,97723.09
2022-12-12T02:39:37.775Z,97708.44
2022-12-12T02:43:35.072Z,97714.34
2022-12-12T02:47:26.569Z,97700.59
2022-12-12T02:50:53.235Z,97712.63
2022-12-12T02:54:20.592Z,97706.56
2022-12-12T02:57:42.709Z,97695.66
2022-12-12T03:01:23.109Z,97707.06
2022-12-12T03:05:20.747Z,97708.84
2022-12-12T03:09:13.483Z,97710.19
2022-12-12T03:13:01.666Z,97702.53
2022-12-12T03:16:38.388Z,97705.78
2022-12-12T03:20:23.225Z,97702.06
2022-12-12T03:23:51.153Z,97706.69
2022-12-12T03:27:31.369Z,97702.31
2022-12-12T03:31:00.412Z,97699.69
2022-12-12T03:34:30.160Z,97701.66
2022-12-12T03:38:08.595Z,97702.69
2022-12-12T03:41:43.333Z,97695.50
2022-12-12T03:45:41.137Z,97685.47
2022-12-12T03:49:13.401Z,97696.09
2022-12-12T03:52:59.206Z,97697.41
2022-12-12T03:56:42.879Z,97705.59
2022-12-12T04:00:14.800Z,97710.75
2022-12-12T04:04:08.448Z,97707.41
2022-12-12T04:07:37.803Z,97701.53
2022-12-12T04:11:33.541Z,97708.84
2022-12-12T04:15:52.643Z,97712.47
2022-12-12T04:20:21.858Z,97707.69
2022-12-12T04:24:04.629Z,97707.69
2022-12-12T04:27:39.483Z,97709.97
2022-12-12T04:31:05.517Z,97719.88
2022-12-12T04:34:56.203Z,97718.41
2022-12-12T04:38:23.979Z,97724.66
2022-12-12T04:41:49.457Z,97725.38
2022-12-12T04:45:20.301Z,97729.25
2022-12-12T04:48:53.341Z,97735.19
2022-12-12T04:52:20.889Z,97741.81
2022-12-12T04:55:48.233Z,97740.34
2022-12-12T04:59:10.143Z,97734.56
2022-12-12T05:02:54.614Z,97732.72
2022-12-12T05:06:27.168Z,97729.19
2022-12-12T05:09:50.128Z,97738.75
2022-12-12T05:13:19.277Z,97729.44
2022-12-12T05:16:54.534Z,97732.31
2022-12-12T05:20:16.589Z,97731.88
2022-12-12T05:23:38.536Z,97728.44
2022-12-12T05:27:00.608Z,97748.38
2022-12-12T05:30:23.928Z,97742.34
2022-12-12T05:33:46.263Z,97746.00
2022-12-12T05:37:08.164Z,97741.81
2022-12-12T05:40:30.009Z,97754.13
2022-12-12T05:43:52.127Z,97751.06
2022-12-12T05:47:13.920Z,97753.94
2022-12-12T05:50:35.701Z,97756.00
2022-12-12T05:53:57.788Z,97756.56
2022-12-12T05:57:19.750Z,97751.25
2022-12-12T06:00:41.620Z,97751.09
2022-12-12T06:04:03.929Z,97752.53
2022-12-12T06:07:25.807Z,97747.34
2022-12-12T06:10:47.592Z,97754.53
2022-12-12T06:14:09.396Z,97756.91
2022-12-12T06:17:33.257Z,97757.97
2022-12-12T06:21:07.153Z,97749.47
2022-12-12T06:24:29.013Z,97762.38
2022-12-12T06:27:51.240Z,97755.03
2022-12-12T06:31:14.527Z,97761.88
2022-12-12T06:34:38.948Z,97760.78
2022-12-12T06:38:00.729Z,97764.34
2022-12-12T06:41:24.793Z,97765.16
2022-12-12T06:44:46.600Z,97758.44
2022-12-12T06:48:08.396Z,97761.19
2022-12-12T06:51:36.234Z,97752.53
2022-12-12T06:54:57.960Z,97756.16
2022-12-12T06:58:19.904Z,97763.88
2022-12-12T07:01:41.738Z,97774.22
2022-12-12T07:05:03.889Z,97781.53
2022-12-12T07:08:28.135Z,97779.63
2022-12-12T07:11:50.021Z,97771.16
2022-12-12T07:15:12.390Z,97774.31
2022-12-12T07:18:34.973Z,97776.66
2022-12-12T07:21:56.826Z,97778.28
2022-12-12T07:25:18.733Z,97771.28
2022-12-12T07:28:40.664Z,97773.84
2022-12-12T07:32:02.480Z,97787.22
2022-12-12T07:35:24.399Z,97781.84
2022-12-12T07:38:46.233Z,97793.09
2022-12-12T07:42:08.201Z,97792.94
2022-12-12T07:45:30.463Z,97803.09
2022-12-12T07:48:53.704Z,97799.66
2022-12-12T07:52:15.502Z,97807.31
2022-12-12T07:55:40.312Z,97813.88
2022-12-12T07:59:02.047Z,97816.69
2022-12-12T08:02:24.135Z,97804.97
2022-12-12T08:05:45.910Z,97809.84
2022-12-12T08:09:07.930Z,97808.53
2022-12-12T08:12:31.690Z,97817.31
2022-12-12T08:15:53.554Z,97812.72
2022-12-12T08:19:15.666Z,97827.81
2022-12-12T08:22:37.562Z,97832.13
2022-12-12T08:26:10.961Z,97839.44
2022-12-12T08:29:32.789Z,97838.22
2022-12-12T08:32:54.656Z,97842.38
2022-12-12T08:36:24.515Z,97838.84
2022-12-12T08:39:48.403Z,97832.50
2022-12-12T08:43:13.285Z,97835.47
2022-12-12T08:46:35.500Z,97840.38
2022-12-12T08:49:57.343Z,97835.69
2022-12-12T08:53:19.102Z,97837.41
2022-12-12T08:56:41.272Z,97833.50
2022-12-12T09:00:04.987Z,97834.03
2022-12-12T09:03:29.390Z,97839.16
2022-12-12T09:06:51.687Z,97846.81
2022-12-12T09:10:13.452Z,97849.38
2022-12-12T09:13:36.808Z,97856.28
2022-12-12T09:16:58.530Z,97863.19
2022-12-12T09:20:20.314Z,97861.16
2022-12-12T09:23:42.216Z,97850.53
2022-12-12T09:27:04.364Z,97865.91
2022-12-12T09:30:26.211Z,97858.00
2022-12-12T09:33:48.034Z,97854.28
2022-12-12T09:37:09.989Z,97860.06
2022-12-12T09:41:00.092Z,97859.00
2022-12-12T09:44:26.179Z,97865.28
2022-12-12T09:48:02.671Z,97854.44
2022-12-12T09:51:24.866Z,97864.41
2022-12-12T09:54:46.790Z,97867.78
2022-12-12T09:58:30.262Z,97869.81
2022-12-12T10:02:10.981Z,97867.22
2022-12-12T10:06:13.871Z,97858.94
2022-12-12T10:10:06.764Z,97863.03
2022-12-12T10:13:34.243Z,97862.09
2022-12-12T10:16:59.321Z,97855.47
2022-12-12T10:20:27.178Z,97848.00
2022-12-12T10:24:02.594Z,97858.56
2022-12-12T10:27:25.040Z,97851.91
2022-12-12T10:31:20.309Z,97839.88
2022-12-12T10:35:22.776Z,97835.72
2022-12-12T10:39:14.846Z,97833.63
2022-12-12T10:43:19.837Z,97836.31
2022-12-12T10:46:48.267Z,97834.06
2022-12-12T10:50:46.556Z,97841.50
2022-12-12T10:54:19.184Z,97838.97
2022-12-12T10:57:41.055Z,97840.53
2022-12-12T11:01:12.496Z,97837.91
2022-12-12T11:04:34.957Z,97835.31
2022-12-12T11:08:26.109Z,97825.78
2022-12-12T11:12:09.632Z,97821.16
2022-12-12T11:16:13.141Z,97823.88
2022-12-12T11:19:39.182Z,97815.72
2022-12-12T11:23:01.363Z,97811.97
2022-12-12T11:26:26.612Z,97803.50
2022-12-12T11:30:24.969Z,97816.44
2022-12-12T11:33:56.786Z,97812.41
2022-12-12T11:37:23.306Z,97813.13
2022-12-12T11:40:57.342Z,97805.25
2022-12-12T11:44:27.227Z,97796.88
2022-12-12T11:47:49.377Z,97803.72
2022-12-12T11:51:11.541Z,97798.69
2022-12-12T11:54:34.281Z,97804.41
2022-12-12T11:58:22.355Z,97800.34
2022-12-12T12:02:30.291Z,97797.34
2022-12-12T12:06:18.989Z,97777.41
2022-12-12T12:10:08.168Z,97772.47
2022-12-12T12:14:19.570Z,97769.28
2022-12-12T12:18:06.076Z,97773.88
2022-12-12T12:21:44.779Z,97759.63
2022-12-12T12:25:47.369Z,97765.03
2022-12-12T12:30:03.569Z,97767.63
2022-12-12T12:34:00.557Z,97765.03
2022-12-12T12:37:41.885Z,97772.69
2022-12-12T12:41:45.296Z,97760.66
2022-12-12T12:45:28.148Z,97752.53
2022-12-12T12:49:04.957Z,97749.94
2022-12-12T12:52:39.773Z,97747.81
2022-12-12T12:56:19.037Z,97746.53
2022-12-12T12:59:52.439Z,97742.59
2022-12-12T13:03:24.386Z,97743.09
2022-12-12T13:07:29.684Z,97729.19
2022-12-12T13:10:59.999Z,97735.41
2022-12-12T13:14:52.035Z,97731.19
2022-12-12T13:18:17.482Z,97725.16
2022-12-12T13:22:12.669Z,97717.38
2022-12-12T13:25:37.331Z,97720.91
2022-12-12T13:29:25.200Z,97715.00
2022-12-12T13:33:08.788Z,97724.94
2022-12-12T13:36:43.744Z,97722.81
2022-12-12T13:40:08.314Z,97726.66
2022-12-12T13:43:32.959Z,97727.66
2022-12-12T13:46:54.721Z,97729.44
2022-12-12T13:50:23.150Z,97723.56
2022-12-12T13:53:45.041Z,97721.28
2022-12-12T13:57:14.614Z,97716.94
2022-12-12T14:00:41.493Z,97721.63
2022-12-12T14:04:04.033Z,97709.78
2022-12-12T14:07:25.818Z,97696.00
2022-12-12T14:11:02.418Z,97681.44
2022-12-12T14:14:25.191Z,97692.72
2022-12-12T14:17:59.207Z,97692.19
2022-12-12T14:21:46.919Z,97690.03
2022-12-12T14:25:11.653Z,97689.69
2022-12-12T14:28:34.292Z,97681.75
2022-12-12T14:32:10.972Z,97696.31
2022-12-12T14:35:55.642Z,97696.72
2022-12-12T14:39:47.893Z,97704.22
2022-12-12T14:43:25.940Z,97709.63
2022-12-12T14:46:48.042Z,97708.41
2022-12-12T14:50:16.688Z,97719.13
2022-12-12T14:53:38.565Z,97725.78
2022-12-12T14:57:01.329Z,97728.50
2022-12-12T15:00:23.576Z,97725.91
2022-12-12T15:03:50.842Z,97720.78
2022-12-12T15:07:31.157Z,97718.88
2022-12-12T15:10:59.642Z,97712.88
2022-12-12T15:14:27.438Z,97706.69
2022-12-12T15:17:51.481Z,97705.69
2022-12-12T15:21:15.365Z,97702.66
2022-12-12T15:24:40.055Z,97702.13
2022-12-12T15:28:02.765Z,97704.50
2022-12-12T15:31:25.433Z,97706.34
2022-12-12T15:35:01.145Z,97705.91
2022-12-12T15:38:23.593Z,97707.25
2022-12-12T15:41:47.758Z,97705.94
2022-12-12T15:45:21.625Z,97716.59
2022-12-12T15:48:45.649Z,97714.91
2022-12-12T15:52:30.649Z,97716.97
2022-12-12T15:56:15.391Z,97710.63
2022-12-12T15:59:37.552Z,97716.94
2022-12-12T16:03:09.619Z,97710.44
2022-12-12T16:06:39.486Z,97714.63
2022-12-12T16:10:24.376Z,97716.41
2022-12-12T16:13:46.647Z,97719.25
2022-12-12T16:17:19.268Z,97721.44
2022-12-12T16:20:57.412Z,97729.34
2022-12-12T16:24:26.181Z,97734.09
2022-12-12T16:28:13.975Z,97728.50
2022-12-12T16:31:35.881Z,97730.34
2022-12-12T16:34:57.714Z,97728.66
2022-12-12T16:38:20.023Z,97731.50
2022-12-12T16:41:42.018Z,97732.81
2022-12-12T16:45:04.629Z,97719.69
2022-12-12T16:48:33.448Z,97727.03
2022-12-12T16:51:55.287Z,97715.56
2022-12-12T16:55:23.461Z,97719.53
2022-12-12T16:58:45.288Z,97720.63
2022-12-12T17:02:25.398Z,97723.59
2022-12-12T17:05:48.367Z,97714.50
2022-12-12T17:09:10.215Z,97715.97
2022-12-12T17:12:33.069Z,97724.00
2022-12-12T17:15:55.740Z,97710.44
2022-12-12T17:19:17.759Z,97707.94
2022-12-12T17:22:40.625Z,97708.19
2022-12-12T17:26:04.898Z,97704.47
2022-12-12T17:29:27.052Z,97690.53
2022-12-12T17:36:30.435Z,97683.50
2022-12-12T17:39:52.454Z,97684.50
2022-12-12T17:43:15.399Z,97680.41
2022-12-12T17:46:38.510Z,97697.25
2022-12-12T17:50:00.607Z,97693.84
2022-12-12T17:53:22.480Z,97701.00
2022-12-12T17:56:44.471Z,97705.22
2022-12-12T18:00:07.295Z,97696.31
2022-12-12T18:03:35.214Z,97702.97
2022-12-12T18:06:57.032Z,97702.69
2022-12-12T18:10:18.930Z,97690.06
2022-12-12T18:13:42.471Z,97701.69
2022-12-12T18:17:04.376Z,97699.38
2022-12-12T18:20:31.030Z,97701.44
2022-12-12T18:23:53.771Z,97683.56
2022-12-12T18:27:15.629Z,97693.69
2022-12-12T18:30:38.912Z,97696.38
2022-12-12T18:34:01.213Z,97690.38
2022-12-12T18:37:22.972Z,97687.47
2022-12-12T18:40:44.855Z,97682.91
2022-12-12T18:44:10.631Z,97682.69
2022-12-12T18:47:32.527Z,97690.53
2022-12-12T18:50:54.541Z,97688.69
2022-12-12T18:54:17.235Z,97688.38
2022-12-12T18:57:39.057Z,97688.75
2022-12-12T19:01:08.719Z,97687.66
2022-12-12T19:04:30.701Z,97679.88
2022-12-12T19:07:52.727Z,97688.84
2022-12-12T19:11:17.296Z,97693.16
2022-12-12T19:15:07.938Z,97691.91
2022-12-12T19:18:21.552Z,97679.41
2022-12-12T19:21:43.694Z,97690.59
2022-12-12T19:25:06.048Z,97683.25
2022-12-12T19:28:28.699Z,97684.50
2022-12-12T19:31:56.854Z,97674.47
2022-12-12T19:35:20.291Z,97676.75
2022-12-12T19:38:42.766Z,97666.72
2022-12-12T19:42:04.513Z,97668.13
2022-12-12T19:45:26.393Z,97685.75
2022-12-12T19:48:49.061Z,97681.03
2022-12-12T19:52:14.340Z,97686.19
2022-12-12T19:55:36.830Z,97694.13
2022-12-12T19:58:59.746Z,97689.38
2022-12-12T20:02:21.745Z,97681.22
2022-12-12T20:05:43.564Z,97687.97
2022-12-12T20:09:05.415Z,97688.69
2022-12-12T20:12:27.221Z,97684.72
2022-12-12T20:15:49.132Z,97681.16
2022-12-12T20:19:12.142Z,97686.84
2022-12-12T20:22:34.043Z,97687.91
2022-12-12T20:25:55.994Z,97681.34
2022-12-12T20:29:19.139Z,97676.38
2022-12-12T20:32:40.994Z,97674.44
2022-12-12T20:36:12.861Z,97675.72
2022-12-12T20:39:37.375Z,97671.06
2022-12-12T20:43:03.353Z,97674.84
2022-12-12T20:46:30.046Z,97663.25
2022-12-12T20:49:51.891Z,97662.28
2022-12-12T20:53:13.755Z,97664.91
2022-12-12T20:56:36.014Z,97663.63
2022-12-12T20:59:57.847Z,97673.94
2022-12-12T21:03:19.725Z,97663.63
2022-12-12T21:06:47.684Z,97669.09
2022-12-12T21:10:10.374Z,97662.47
2022-12-12T21:13:32.499Z,97672.88
2022-12-12T21:16:54.776Z,97679.41
2022-12-12T21:20:16.662Z,97665.94
2022-12-12T21:23:39.818Z,97670.16
2022-12-12T21:27:01.698Z,97660.41
2022-12-12T21:30:23.721Z,97667.09
2022-12-12T21:33:46.513Z,97667.88
2022-12-12T21:37:08.457Z,97666.94
2022-12-12T21:40:31.138Z,97658.97
2022-12-12T21:43:54.260Z,97656.25
2022-12-12T21:47:16.093Z,97662.72
2022-12-12T21:50:38.298Z,97655.00
2022-12-12T21:54:00.151Z,97661.25
2022-12-12T21:57:24.927Z,97648.47
2022-12-12T22:00:46.862Z,97648.22
2022-12-12T22:04:12.396Z,97649.88
2022-12-12T22:07:35.211Z,97650.22
2022-12-12T22:10:59.730Z,97647.50
2022-12-12T22:14:22.037Z,97637.50
2022-12-12T22:17:44.305Z,97641.25
2022-12-12T22:21:10.296Z,97645.22
2022-12-12T22:24:32.280Z,97648.16
2022-12-12T22:27:54.088Z,97649.41
2022-12-12T22:31:16.314Z,97648.50
2022-12-12T22:34:38.274Z,97644.97
2022-12-12T22:38:00.065Z,97645.56
2022-12-12T22:41:23.000Z,97646.28
2022-12-12T22:44:44.833Z,97642.97
2022-12-12T22:48:06.725Z,97643.56
2022-12-12T22:51:32.861Z,97636.38
2022-12-12T22:54:55.149Z,97631.78
2022-12-12T22:58:17.007Z,97629.97
2022-12-12T23:01:39.234Z,97627.81
2022-12-12T23:05:02.023Z,97616.56
2022-12-12T23:08:23.926Z,97613.97
2022-12-12T23:11:46.506Z,97618.44
2022-12-12T23:15:09.523Z,97625.91
2022-12-12T23:18:31.587Z,97612.91
2022-12-12T23:21:53.481Z,97617.97
2022-12-12T23:25:15.871Z,97610.13
2022-12-12T23:28:39.337Z,97610.44
2022-12-12T23:32:02.856Z,97598.81
2022-12-12T23:35:24.942Z,97595.59
2022-12-12T23:38:47.000Z,97596.03
2022-12-12T23:42:08.813Z,97598.47
2022-12-12T23:45:30.656Z,97593.16
2022-12-12T23:48:52.468Z,97593.16
2022-12-12T23:52:14.268Z,97589.13
2022-12-12T23:55:36.140Z,97589.25
2022-12-12T23:58:59.452Z,97583.81
